Impacts TAF Board
For situational awareness. Not to be used for flight planning purposes.
IDs:

KHUM - Houma/Terrebonne Arp, LA, US

Issued at 1138 UTC 17 Dec 2018
Updated at 1214 UTC 17 Dec 2018
Potential Impact None Slight Moderate High
Time1150Z 17/13Z 17/14Z 17/15Z 17/16Z 17/17Z 17/18Z 17/19Z 17/20Z 17/21Z 17/22Z 17/23Z 18/00Z 18/01Z>>
Type OBS PRVL PRVL PRVL PRVL PRVL PRVL PRVL PRVL PRVL PRVL PRVL PRVL PRVL
VIS 7 5 >6 >6 >6 >6 >6 >6 >6 >6 >6 >6 >6 >6
CIG -- 250 250 250 250 250 250 250 250 250 250 250 250 250
Cover CLR BKN BKN BKN BKN BKN BKN BKN BKN BKN BKN BKN BKN BKN
FltCat VFR MVFR VFR VFR VFR VFR VFR VFR VFR VFR VFR VFR VFR VFR
WX -- BR -- -- -- -- -- -- -- -- -- -- -- --
WDir VRB VRB VRB VRB VRB VRB VRB VRB VRB VRB VRB VRB VRB VRB
WSpd 0 4 4 4 4 4 4 4 4 4 4 4 4 4
WGst -- -- -- -- -- -- -- -- -- -- -- -- -- --
Raw TAF
KHUM 171138Z 1712/1812 VRB04KT 5SM BR BKN250
  FM171400 VRB04KT P6SM BKN250
  FM180700 00000KT 3SM BR BKN250
  TEMPO 1809/1812 1SM BR


Raw METAR
KHUM 171150Z 00000KT 7SM CLR 06/06 A3027
KHUM 171135Z AUTO 00000KT 5SM BR CLR 06/06 A3026 RMK AO2 T00570056
KHUM 171115Z AUTO 00000KT 7SM CLR 06/05 A3025 RMK AO2 T00550054
KHUM 171055Z AUTO 00000KT 5SM BR SCT001 05/05 A3025 RMK AO2 T00530052
KHUM 171035Z AUTO 00000KT 3/4SM -SN OVC001 06/05 A3025 RMK AO2 T00550053
KHUM 171015Z AUTO 24003KT 5SM BR CLR 06/06 A3026 RMK AO2 T00600060
KHUM 170955Z AUTO 00000KT 5SM BR CLR 06/06 A3025 RMK AO2 T00600058
KHUM 170935Z AUTO 00000KT 7SM CLR 06/06 A3025 RMK AO2 T00600059

METAR Board
Radar Display
Forecast Discussion
For situational awareness. Not to be used for flight planning purposes.